Time;durP1;ratioP1;P1;durP2;ratioP2;P2;SDS_P1;SDS_P2;PMS_P1;PMS_P2;Temp;Humidity;BMP_temperature;BMP_pressure;BME280_temperature;BME280_humidity;BME280_pressure;Samples;Min_cycle;Max_cycle;Signal;HPM_P1;HPM_P2
2022/01/23 00:00:55;;;;;;;93.90;34.55;;;4.80;99.90;;;;;;4917094;29;20544;-83
2022/01/23 00:03:21;;;;;;;77.57;34.95;;;4.80;99.90;;;;;;4917284;29;20531;-82
2022/01/23 00:05:49;;;;;;;67.30;31.85;;;4.70;99.90;;;;;;4917170;29;20032;-82
2022/01/23 00:08:19;;;;;;;66.18;29.38;;;4.70;99.90;;;;;;4917504;29;20051;-83
2022/01/23 00:10:45;;;;;;;70.20;32.60;;;4.70;99.90;;;;;;4917868;29;20060;-82
2022/01/23 00:17:16;;;;;;;69.97;33.72;;;4.60;99.90;;;;;;4917752;29;20115;-83
2022/01/23 00:18:44;;;;;;;44.45;22.38;;;4.40;99.90;;;;;;4917540;29;20039;-82
2022/01/23 00:21:10;;;;;;;62.53;29.92;;;4.30;99.90;;;;;;4916734;29;20036;-81
2022/01/23 00:31:37;;;;;;;60.92;26.85;;;4.20;99.90;;;;;;4917313;29;20066;-81
2022/01/23 00:34:02;;;;;;;55.63;25.00;;;4.20;99.90;;;;;;4917029;29;20499;-80
2022/01/23 00:36:29;;;;;;;52.15;24.83;;;4.20;99.90;;;;;;4900182;29;20032;-81
2022/01/23 00:38:56;;;;;;;46.85;23.23;;;4.20;99.90;;;;;;4916934;29;20025;-82
2022/01/23 00:41:23;;;;;;;53.17;24.77;;;4.20;99.90;;;;;;4916286;29;20052;-81
2022/01/23 00:43:50;;;;;;;50.42;24.42;;;4.20;99.90;;;;;;4916088;29;20118;-82
2022/01/23 00:51:32;;;;;;;53.63;23.50;;;4.10;99.90;;;;;;4916398;29;20028;-82
2022/01/23 00:54:00;;;;;;;48.67;22.05;;;4.10;99.90;;;;;;4915888;29;20024;-82
2022/01/23 00:56:26;;;;;;;60.08;25.88;;;4.10;99.90;;;;;;4915413;29;20055;-82
2022/01/23 00:58:52;;;;;;;49.55;24.23;;;4.10;99.90;;;;;;4915680;29;20382;-82
2022/01/23 01:01:19;;;;;;;40.92;20.50;;;4.10;99.90;;;;;;4914944;29;20055;-81
2022/01/23 01:03:45;;;;;;;39.63;19.92;;;4.10;99.90;;;;;;4914814;29;20031;-82
2022/01/23 01:06:11;;;;;;;50.00;20.98;;;4.10;99.90;;;;;;4915376;29;20482;-82
2022/01/23 01:08:37;;;;;;;42.10;19.58;;;4.20;99.90;;;;;;4915873;29;20032;-82
2022/01/23 01:13:53;;;;;;;44.03;20.17;;;4.20;99.90;;;;;;4916094;29;20028;-82
2022/01/23 01:35:19;;;;;;;63.80;29.60;;;4.20;99.90;;;;;;4915096;29;20032;-81
2022/01/23 01:37:45;;;;;;;61.90;28.08;;;4.10;99.90;;;;;;4898353;29;20032;-81
2022/01/23 01:40:11;;;;;;;63.65;28.85;;;4.10;99.90;;;;;;4855910;29;1231574;-82
2022/01/23 01:42:36;;;;;;;63.58;28.90;;;4.10;99.90;;;;;;4916018;29;20039;-80
2022/01/23 01:45:03;;;;;;;59.03;28.42;;;4.10;99.90;;;;;;4899114;29;20119;-82
2022/01/23 01:47:29;;;;;;;61.28;26.77;;;4.10;99.90;;;;;;4899299;29;20024;-82
2022/01/23 01:49:55;;;;;;;53.63;25.58;;;4.10;99.90;;;;;;4916253;29;20024;-80
2022/01/23 01:52:21;;;;;;;46.80;22.65;;;4.10;99.90;;;;;;4916046;29;20131;-82
2022/01/23 01:54:48;;;;;;;41.75;19.90;;;4.10;99.90;;;;;;4914907;29;20029;-82
2022/01/23 01:57:15;;;;;;;47.00;21.40;;;4.10;99.90;;;;;;4915111;29;20024;-82
2022/01/23 02:10:26;;;;;;;52.35;23.45;;;4.00;99.90;;;;;;4918827;29;20067;-82
2022/01/23 02:23:58;;;;;;;32.15;14.82;;;3.50;99.90;;;;;;4919345;29;20071;-82
2022/01/23 02:51:01;;;;;;;28.80;12.85;;;3.30;99.90;;;;;;4899729;29;20112;-82
2022/01/23 02:55:56;;;;;;;18.65;10.98;;;3.30;99.90;;;;;;4899954;29;20469;-82
2022/01/23 02:58:24;;;;;;;21.33;12.07;;;3.30;99.90;;;;;;4900100;29;20039;-82
2022/01/23 03:01:16;;;;;;;21.10;11.43;;;3.30;99.90;;;;;;4899063;29;20029;-82
2022/01/23 03:03:41;;;;;;;23.33;12.07;;;3.30;99.90;;;;;;4899194;29;20056;-82
2022/01/23 03:11:45;;;;;;;19.90;11.43;;;3.30;99.90;;;;;;4899598;29;20116;-82
2022/01/23 03:14:41;;;;;;;21.10;12.18;;;3.40;99.90;;;;;;4899175;29;20037;-78
2022/01/23 03:30:28;;;;;;;23.88;12.80;;;3.40;99.90;;;;;;4899460;29;20107;-78
2022/01/23 03:32:55;;;;;;;22.48;11.90;;;3.30;99.90;;;;;;4898979;29;20025;-78
2022/01/23 03:35:22;;;;;;;18.90;11.20;;;3.20;99.90;;;;;;4899296;29;20120;-77
2022/01/23 03:37:48;;;;;;;25.33;12.80;;;3.10;99.90;;;;;;4899255;29;20097;-82
2022/01/23 03:40:16;;;;;;;23.83;12.52;;;3.10;99.90;;;;;;4898862;29;20056;-82
2022/01/23 03:42:43;;;;;;;23.15;12.50;;;3.10;99.90;;;;;;4898777;29;20040;-78
2022/01/23 03:50:48;;;;;;;22.65;10.85;;;3.10;99.90;;;;;;4878427;29;20040;-82
2022/01/23 03:53:15;;;;;;;21.98;11.57;;;3.00;99.90;;;;;;4898521;29;20049;-82
2022/01/23 03:55:41;;;;;;;22.60;11.93;;;3.00;99.90;;;;;;4898909;29;20046;-80
2022/01/23 03:58:07;;;;;;;18.40;10.48;;;3.00;99.90;;;;;;4899071;29;20494;-80
2022/01/23 04:00:34;;;;;;;26.67;11.45;;;3.00;99.90;;;;;;4898209;29;20056;-78
2022/01/23 04:02:59;;;;;;;21.52;11.05;;;3.00;99.90;;;;;;4898723;29;20017;-82
2022/01/23 04:05:25;;;;;;;22.33;10.23;;;3.00;99.90;;;;;;4898242;29;20028;-81
2022/01/23 04:07:51;;;;;;;19.23;10.43;;;3.00;99.90;;;;;;4898397;29;20405;-76
2022/01/23 04:10:19;;;;;;;18.27;10.73;;;3.00;99.90;;;;;;4898202;29;20033;-80
2022/01/23 04:13:10;;;;;;;20.65;10.88;;;3.00;99.90;;;;;;4898233;29;20052;-81
2022/01/23 04:16:03;;;;;;;18.88;10.45;;;3.00;99.90;;;;;;4897900;29;20036;-78
2022/01/23 04:19:10;;;;;;;18.85;10.25;;;3.10;99.90;;;;;;4898232;29;20024;-80
2022/01/23 04:33:11;;;;;;;19.60;10.15;;;3.10;99.90;;;;;;4928733;29;20031;-81
2022/01/23 04:46:15;;;;;;;16.35;8.82;;;3.10;99.90;;;;;;4931549;29;20433;-82
2022/01/23 04:59:46;;;;;;;18.52;10.32;;;3.10;99.90;;;;;;4935230;29;20393;-82
2022/01/23 05:04:56;;;;;;;16.25;9.70;;;3.10;99.90;;;;;;4916508;29;20075;-80
2022/01/23 05:07:27;;;;;;;14.05;8.60;;;3.10;99.90;;;;;;4933919;29;20027;-79
2022/01/23 05:09:52;;;;;;;21.33;9.55;;;3.10;99.90;;;;;;4932788;29;20032;-82
2022/01/23 05:12:18;;;;;;;15.63;9.15;;;3.10;99.90;;;;;;4909781;29;20426;-82
2022/01/23 05:14:46;;;;;;;18.17;9.25;;;3.10;99.90;;;;;;4934876;29;20118;-80
2022/01/23 05:17:14;;;;;;;16.23;10.20;;;3.20;99.90;;;;;;4921703;29;20042;-82
2022/01/23 05:19:41;;;;;;;15.98;9.50;;;3.10;99.90;;;;;;4915962;29;20489;-82
2022/01/23 05:22:52;;;;;;;24.55;10.23;;;3.20;99.90;;;;;;4916069;29;20024;-82
2022/01/23 05:25:03;;;;;;;18.08;10.07;;;3.20;99.90;;;;;;4915646;29;20124;-83
2022/01/23 05:27:31;;;;;;;19.63;9.57;;;3.20;99.90;;;;;;4917500;29;20016;-82
2022/01/23 05:29:58;;;;;;;17.40;9.63;;;3.20;99.90;;;;;;4934992;29;20055;-82
2022/01/23 05:32:34;;;;;;;19.63;10.18;;;3.20;99.90;;;;;;4933347;29;20114;-83
2022/01/23 05:34:59;;;;;;;21.67;9.57;;;3.20;99.90;;;;;;4916182;29;20036;-82
2022/01/23 05:37:25;;;;;;;19.92;10.18;;;3.20;99.90;;;;;;4930072;29;20122;-82
2022/01/23 05:39:51;;;;;;;16.42;10.00;;;3.30;99.90;;;;;;4917894;29;20107;-82
2022/01/23 05:42:17;;;;;;;14.60;8.88;;;3.20;99.90;;;;;;4915877;29;20028;-82
2022/01/23 05:44:43;;;;;;;18.42;10.13;;;3.20;99.90;;;;;;4918811;29;20028;-82
2022/01/23 05:47:11;;;;;;;19.92;10.15;;;3.20;99.90;;;;;;4916486;29;20032;-81
2022/01/23 05:49:37;;;;;;;25.02;10.93;;;3.20;99.90;;;;;;4915862;29;20441;-82
2022/01/23 05:52:05;;;;;;;22.58;9.65;;;3.10;99.90;;;;;;4915277;29;20036;-82
2022/01/23 05:54:31;;;;;;;21.20;10.13;;;3.10;99.90;;;;;;4918077;29;20036;-80
2022/01/23 05:56:56;;;;;;;19.90;10.90;;;3.10;99.90;;;;;;4922004;29;20366;-80
2022/01/23 05:59:22;;;;;;;18.05;10.27;;;3.10;99.90;;;;;;4934200;29;20035;-82
2022/01/23 06:01:54;;;;;;;19.65;10.60;;;3.10;99.90;;;;;;4927334;29;20460;-82
2022/01/23 06:04:20;;;;;;;18.23;9.73;;;3.10;99.90;;;;;;4916113;29;20035;-82
2022/01/23 06:06:47;;;;;;;26.35;11.15;;;3.10;99.90;;;;;;4920573;29;20087;-80
2022/01/23 06:09:13;;;;;;;19.75;10.02;;;3.10;99.90;;;;;;4915219;29;20573;-81
2022/01/23 06:11:39;;;;;;;28.63;10.50;;;3.10;99.90;;;;;;4918078;29;20036;-82
2022/01/23 06:14:07;;;;;;;19.40;10.05;;;3.10;99.90;;;;;;4934157;29;20031;-82
2022/01/23 06:16:32;;;;;;;23.95;10.77;;;3.10;99.90;;;;;;4932434;29;20046;-81
2022/01/23 06:18:58;;;;;;;19.02;10.48;;;3.10;99.90;;;;;;4933765;29;20020;-81
2022/01/23 06:21:25;;;;;;;23.70;10.93;;;3.10;99.90;;;;;;4934377;29;20024;-81
2022/01/23 06:24:01;;;;;;;23.63;11.32;;;3.10;99.90;;;;;;4915380;29;20046;-82
2022/01/23 06:26:43;;;;;;;15.85;10.43;;;3.10;99.90;;;;;;4903635;29;20123;-81
2022/01/23 06:29:10;;;;;;;21.42;11.07;;;3.10;99.90;;;;;;4932326;29;20024;-81
2022/01/23 06:31:37;;;;;;;19.83;10.30;;;3.00;99.90;;;;;;4916950;29;20418;-82
2022/01/23 06:34:03;;;;;;;21.30;11.15;;;3.00;99.90;;;;;;4921914;29;20472;-81
2022/01/23 06:36:28;;;;;;;23.70;11.00;;;3.10;99.90;;;;;;4928586;29;20048;-81
2022/01/23 06:38:54;;;;;;;23.63;12.10;;;3.10;99.90;;;;;;4900678;29;20430;-81
2022/01/23 06:41:20;;;;;;;24.20;12.50;;;3.10;99.90;;;;;;4923505;29;20543;-82
2022/01/23 06:43:46;;;;;;;28.85;12.65;;;3.20;99.90;;;;;;4928683;29;20028;-81
2022/01/23 06:46:11;;;;;;;36.60;13.32;;;3.20;99.90;;;;;;4918222;29;20063;-81
2022/01/23 06:48:37;;;;;;;25.33;13.60;;;3.30;99.90;;;;;;4933527;29;20032;-78
2022/01/23 06:51:03;;;;;;;25.98;13.40;;;3.30;99.90;;;;;;4927922;29;20034;-81
2022/01/23 06:53:28;;;;;;;28.58;13.18;;;3.40;99.90;;;;;;4923266;29;20040;-82
2022/01/23 06:55:54;;;;;;;26.85;12.13;;;3.40;99.90;;;;;;4917083;29;20474;-82
2022/01/23 06:58:20;;;;;;;31.00;12.90;;;3.40;99.90;;;;;;4918615;29;20028;-82
2022/01/23 07:00:45;;;;;;;17.40;10.90;;;3.40;99.90;;;;;;4919550;29;20040;-82
2022/01/23 07:03:12;;;;;;;24.73;12.40;;;3.50;99.90;;;;;;4928121;29;20457;-81
2022/01/23 07:05:38;;;;;;;23.08;11.60;;;3.50;99.90;;;;;;4918530;29;20028;-81
2022/01/23 07:08:05;;;;;;;25.45;11.45;;;3.60;99.90;;;;;;4924690;29;20024;-81
2022/01/23 07:10:31;;;;;;;29.80;11.15;;;3.70;99.90;;;;;;4926122;29;20100;-80
2022/01/23 07:12:56;;;;;;;21.65;12.25;;;3.80;99.90;;;;;;4928738;29;20469;-81
2022/01/23 07:15:22;;;;;;;26.83;11.40;;;4.00;99.90;;;;;;4920163;29;20401;-80
2022/01/23 07:17:48;;;;;;;21.33;11.40;;;4.10;99.90;;;;;;4924011;29;20083;-80
2022/01/23 07:20:13;;;;;;;19.63;9.75;;;4.20;99.90;;;;;;4912053;29;20028;-82
2022/01/23 07:22:39;;;;;;;18.92;11.07;;;4.40;99.90;;;;;;4922492;29;20504;-81
2022/01/23 07:25:06;;;;;;;23.20;11.63;;;4.50;99.90;;;;;;4901692;29;20036;-81
2022/01/23 07:27:37;;;;;;;19.85;11.55;;;4.80;99.90;;;;;;4937013;29;20086;-81
2022/01/23 07:30:07;;;;;;;28.17;12.80;;;5.20;99.90;;;;;;4936481;29;20110;-80
2022/01/23 07:32:32;;;;;;;22.45;11.38;;;5.60;99.90;;;;;;4933408;29;20028;-81
2022/01/23 07:34:59;;;;;;;43.70;24.67;;;6.00;99.90;;;;;;4936452;29;20032;-80
2022/01/23 07:37:25;;;;;;;22.95;12.75;;;6.40;99.90;;;;;;4924480;29;20023;-82
2022/01/23 07:39:50;;;;;;;61.72;40.45;;;6.70;99.90;;;;;;4936865;29;20370;-82
2022/01/23 07:42:16;;;;;;;24.35;14.77;;;7.00;99.90;;;;;;4928243;29;20457;-81
2022/01/23 07:44:42;;;;;;;21.17;12.18;;;7.30;99.90;;;;;;4919206;29;20121;-80
2022/01/23 07:47:08;;;;;;;18.77;10.50;;;7.60;99.90;;;;;;4930174;29;20020;-81
2022/01/23 07:49:34;;;;;;;19.38;10.88;;;7.90;99.90;;;;;;4924978;29;20024;-81
2022/01/23 07:52:01;;;;;;;19.85;11.65;;;8.20;99.90;;;;;;4917617;29;20060;-81
2022/01/23 07:54:27;;;;;;;19.45;10.02;;;8.40;99.90;;;;;;4910989;29;20485;-77
2022/01/23 07:56:53;;;;;;;24.27;11.40;;;8.60;99.90;;;;;;4924476;29;20040;-81
2022/01/23 07:59:18;;;;;;;27.63;11.05;;;8.90;99.90;;;;;;4914199;29;20031;-80
2022/01/23 08:01:44;;;;;;;23.48;10.40;;;9.20;99.90;;;;;;4927333;29;20505;-81
2022/01/23 08:04:10;;;;;;;43.72;30.45;;;9.30;99.90;;;;;;4916784;29;20048;-81
2022/01/23 08:06:44;;;;;;;29.75;19.17;;;9.60;99.90;;;;;;4929814;29;20032;-81
2022/01/23 08:09:11;;;;;;;19.40;10.77;;;10.00;99.90;;;;;;4925332;29;20489;-81
2022/01/23 08:11:36;;;;;;;20.63;9.63;;;10.40;99.90;;;;;;4919246;29;20036;-81
2022/01/23 08:14:03;;;;;;;22.38;10.95;;;10.80;99.90;;;;;;4921829;29;20034;-81
2022/01/23 08:16:29;;;;;;;18.15;10.90;;;11.30;99.90;;;;;;4920602;29;20111;-80
2022/01/23 08:18:54;;;;;;;20.88;12.32;;;11.90;99.90;;;;;;4928527;29;20478;-80
2022/01/23 08:21:20;;;;;;;25.42;13.02;;;12.50;99.90;;;;;;4924347;29;20111;-80
2022/01/23 08:23:46;;;;;;;26.45;14.50;;;12.90;99.90;;;;;;4921100;29;20035;-81
2022/01/23 08:26:11;;;;;;;19.60;11.73;;;13.00;99.90;;;;;;4924745;29;20027;-80
2022/01/23 08:28:37;;;;;;;21.33;11.75;;;12.90;99.90;;;;;;4921797;29;20150;-81
2022/01/23 08:31:03;;;;;;;18.17;10.25;;;13.20;99.90;;;;;;4906775;29;20092;-79
2022/01/23 08:33:29;;;;;;;25.60;16.48;;;13.60;99.90;;;;;;4920441;29;20024;-78
2022/01/23 08:35:57;;;;;;;20.40;11.00;;;13.20;99.90;;;;;;4919932;29;20052;-79
2022/01/23 08:38:24;;;;;;;21.08;11.20;;;13.60;99.90;;;;;;4920048;29;20036;-81
2022/01/23 08:41:49;;;;;;;18.42;10.75;;;13.70;99.90;;;;;;4914131;29;20503;-81
2022/01/23 08:43:46;;;;;;;19.25;10.52;;;13.80;99.90;;;;;;4932457;29;20027;-81
2022/01/23 08:46:12;;;;;;;19.60;11.00;;;13.30;99.90;;;;;;4934775;29;20031;-81
2022/01/23 08:48:40;;;;;;;22.48;12.07;;;12.60;99.90;;;;;;4921065;29;20016;-80
2022/01/23 08:51:05;;;;;;;17.70;10.77;;;12.10;99.90;;;;;;4924349;29;20030;-82
2022/01/23 08:53:31;;;;;;;22.75;11.85;;;11.70;99.90;;;;;;4918833;29;20032;-81
2022/01/23 08:55:57;;;;;;;22.13;10.73;;;11.30;99.90;;;;;;4922208;29;20036;-82
2022/01/23 08:58:23;;;;;;;23.13;12.25;;;11.00;99.90;;;;;;4918935;29;20115;-83
2022/01/23 09:00:48;;;;;;;30.17;17.20;;;10.90;99.90;;;;;;4915627;29;20610;-82
2022/01/23 09:03:14;;;;;;;29.35;17.08;;;11.00;99.90;;;;;;4904168;29;20029;-84
2022/01/23 09:05:40;;;;;;;26.45;12.10;;;11.80;99.90;;;;;;4918287;29;20496;-83
2022/01/23 09:08:06;;;;;;;22.05;11.85;;;12.90;99.90;;;;;;4913713;29;20032;-85
2022/01/23 09:10:40;;;;;;;25.48;12.20;;;13.70;99.90;;;;;;4915285;29;20027;-80
2022/01/23 09:13:28;;;;;;;22.33;12.25;;;14.50;99.90;;;;;;4881224;29;20035;-82
2022/01/23 09:15:54;;;;;;;23.85;11.65;;;15.30;99.90;;;;;;4901355;29;20118;-82
2022/01/23 09:18:19;;;;;;;30.10;11.75;;;16.30;99.90;;;;;;4918945;29;20144;-82
2022/01/23 09:20:45;;;;;;;22.08;11.77;;;16.60;99.90;;;;;;4919524;29;20039;-82
2022/01/23 09:23:11;;;;;;;27.38;12.52;;;17.10;99.90;;;;;;4917723;29;20079;-78
2022/01/23 09:25:36;;;;;;;22.90;12.10;;;17.50;99.90;;;;;;4919173;29;20040;-80
2022/01/23 09:28:12;;;;;;;20.75;10.95;;;17.90;99.90;;;;;;4919642;29;20441;-82
2022/01/23 09:30:40;;;;;;;25.02;13.05;;;17.70;99.90;;;;;;4917943;29;20384;-81
2022/01/23 09:33:06;;;;;;;23.02;11.50;;;17.60;99.90;;;;;;4922135;29;20103;-82
2022/01/23 09:35:31;;;;;;;21.13;11.65;;;17.60;99.90;;;;;;4904710;29;20127;-81
2022/01/23 09:37:57;;;;;;;22.75;11.65;;;17.20;99.90;;;;;;4919397;29;20068;-83
2022/01/23 09:40:23;;;;;;;22.55;11.32;;;16.80;99.90;;;;;;4918424;29;20036;-80
2022/01/23 09:43:04;;;;;;;21.33;11.80;;;16.90;99.90;;;;;;4915348;29;20477;-82
2022/01/23 09:45:31;;;;;;;23.90;12.27;;;17.00;99.90;;;;;;4916010;29;20448;-82
2022/01/23 09:48:01;;;;;;;25.10;13.60;;;16.60;99.90;;;;;;4915814;29;20033;-77
2022/01/23 09:50:27;;;;;;;23.80;14.60;;;16.20;99.90;;;;;;4903382;29;20021;-81
2022/01/23 09:52:53;;;;;;;19.88;10.57;;;15.70;99.90;;;;;;4918047;29;20072;-80
2022/01/23 09:55:20;;;;;;;36.97;14.68;;;15.60;99.90;;;;;;4914945;29;20068;-78
2022/01/23 09:57:48;;;;;;;25.88;12.45;;;15.80;99.90;;;;;;4914656;29;20511;-77
2022/01/23 10:00:20;;;;;;;18.30;10.38;;;16.00;99.90;;;;;;4914040;29;20422;-79
2022/01/23 10:02:46;;;;;;;23.92;10.60;;;16.20;99.90;;;;;;4914974;29;20075;-77
2022/01/23 10:05:12;;;;;;;20.27;10.43;;;16.30;99.90;;;;;;4912819;29;20063;-80
2022/01/23 10:07:40;;;;;;;24.45;10.55;;;16.60;99.90;;;;;;4909868;29;20485;-84
2022/01/23 10:10:14;;;;;;;19.20;10.43;;;16.90;99.90;;;;;;4911632;29;20036;-86
2022/01/23 10:12:49;;;;;;;28.02;12.38;;;17.20;99.90;;;;;;4914782;29;20111;-86
2022/01/23 10:15:16;;;;;;;28.70;12.98;;;17.40;99.90;;;;;;4914903;29;20035;-80
2022/01/23 10:17:42;;;;;;;28.55;12.20;;;17.50;99.90;;;;;;4917690;29;20020;-81
2022/01/23 10:20:10;;;;;;;25.45;12.38;;;17.50;99.90;;;;;;4914413;29;20043;-87
2022/01/23 10:22:36;;;;;;;28.88;13.10;;;17.70;99.90;;;;;;4911752;29;20016;-86
2022/01/23 10:25:14;;;;;;;33.40;13.27;;;18.00;99.90;;;;;;4897077;29;20020;-81
2022/01/23 10:28:03;;;;;;;25.67;13.32;;;18.30;99.90;;;;;;4914638;29;20044;-88
2022/01/23 10:30:35;;;;;;;26.98;13.95;;;18.40;99.90;;;;;;4898765;29;20059;-82
2022/01/23 10:33:15;;;;;;;26.70;12.70;;;18.20;99.90;;;;;;4889968;29;20032;-81
2022/01/23 10:35:58;;;;;;;41.10;21.52;;;18.20;99.90;;;;;;4900808;29;20109;-85
2022/01/23 10:38:28;;;;;;;45.53;20.95;;;18.30;99.90;;;;;;4901344;29;20052;-87
2022/01/23 10:49:56;;;;;;;21.73;11.45;;;19.10;99.90;;;;;;4901387;29;20033;-87
2022/01/23 10:52:39;;;;;;;23.80;12.60;;;18.90;99.90;;;;;;4883737;29;20386;-81
2022/01/23 10:55:11;;;;;;;28.17;11.93;;;18.60;99.90;;;;;;4910678;29;20043;-80
2022/01/23 10:57:40;;;;;;;22.83;12.77;;;18.50;99.90;;;;;;4915904;29;20046;-76
2022/01/23 11:00:10;;;;;;;27.23;13.15;;;18.60;99.90;;;;;;4918652;29;20032;-75
2022/01/23 11:02:41;;;;;;;23.92;13.38;;;18.80;99.90;;;;;;4918399;29;20107;-75
2022/01/23 11:05:11;;;;;;;25.40;14.20;;;18.90;99.90;;;;;;4901286;29;20024;-76
2022/01/23 11:07:40;;;;;;;25.02;13.07;;;18.90;99.90;;;;;;4918120;29;20043;-81
2022/01/23 11:10:11;;;;;;;25.17;12.63;;;18.90;99.90;;;;;;4916345;29;20016;-78
2022/01/23 11:18:35;;;;;;;18.08;11.07;;;18.70;99.90;;;;;;4914289;29;20079;-78
2022/01/23 11:21:17;;;;;;;21.40;11.32;;;18.40;99.90;;;;;;4917307;29;20056;-78
2022/01/23 11:23:43;;;;;;;21.83;9.60;;;18.60;99.90;;;;;;4917481;29;20016;-78
2022/01/23 11:26:11;;;;;;;25.05;10.10;;;18.70;99.90;;;;;;4917659;29;20028;-78
2022/01/23 11:28:43;;;;;;;21.73;9.65;;;18.80;99.90;;;;;;4918043;29;20097;-77
2022/01/23 11:31:13;;;;;;;18.23;9.70;;;18.70;99.90;;;;;;4917816;29;20032;-78
2022/01/23 11:33:40;;;;;;;15.18;7.38;;;18.60;99.90;;;;;;4916828;29;20028;-79
2022/01/23 11:36:06;;;;;;;13.60;5.97;;;18.50;99.90;;;;;;4916864;29;20115;-78
2022/01/23 11:38:33;;;;;;;15.18;7.13;;;18.30;99.90;;;;;;4914853;29;20080;-81
2022/01/23 11:54:52;;;;;;;19.27;7.43;;;16.90;99.90;;;;;;4916597;29;20067;-80
2022/01/23 11:57:36;;;;;;;15.73;7.20;;;16.50;99.90;;;;;;4895247;29;20084;-83
2022/01/23 12:00:09;;;;;;;19.15;7.60;;;16.40;99.90;;;;;;4913926;29;20399;-85
2022/01/23 12:02:41;;;;;;;16.75;6.00;;;16.30;99.90;;;;;;4915435;29;20103;-84
2022/01/23 12:07:40;;;;;;;12.73;6.40;;;15.90;99.90;;;;;;4915034;29;20269;-79
2022/01/23 12:13:54;;;;;;;11.52;5.90;;;15.40;99.90;;;;;;4916597;29;20032;-78
2022/01/23 12:19:19;;;;;;;11.57;4.75;;;15.00;99.90;;;;;;4916449;29;20031;-78
2022/01/23 12:21:45;;;;;;;11.27;5.70;;;14.80;99.90;;;;;;4916086;29;20095;-78
2022/01/23 12:24:14;;;;;;;16.35;5.93;;;14.70;99.90;;;;;;4903462;29;20028;-79
2022/01/23 12:26:44;;;;;;;14.18;6.38;;;14.60;99.90;;;;;;4915708;29;20035;-81
2022/01/23 12:29:27;;;;;;;21.90;6.55;;;14.40;99.90;;;;;;4898728;29;20381;-79
2022/01/23 12:32:19;;;;;;;19.13;8.55;;;14.20;99.90;;;;;;4913829;29;20028;-80
2022/01/23 12:34:51;;;;;;;23.85;9.50;;;13.90;99.90;;;;;;4915140;29;20120;-81
2022/01/23 12:37:19;;;;;;;22.67;7.53;;;13.70;99.90;;;;;;4916389;29;20029;-80
2022/01/23 12:40:05;;;;;;;20.45;8.63;;;13.60;99.90;;;;;;4916591;29;20486;-78
2022/01/23 12:43:03;;;;;;;16.58;7.05;;;13.50;99.90;;;;;;4916088;29;20059;-80
2022/01/23 12:45:49;;;;;;;12.38;6.00;;;13.30;99.90;;;;;;4921721;29;20026;-80
2022/01/23 12:48:28;;;;;;;24.85;8.15;;;13.10;99.90;;;;;;4923044;29;20406;-80
2022/01/23 12:51:07;;;;;;;15.13;6.53;;;13.00;99.90;;;;;;4915516;29;20028;-82
2022/01/23 12:53:47;;;;;;;13.48;5.90;;;13.00;99.90;;;;;;4896550;29;20032;-81
2022/01/23 12:56:23;;;;;;;20.20;7.30;;;12.90;99.90;;;;;;4918985;29;20032;-75
2022/01/23 12:59:10;;;;;;;20.05;7.95;;;12.80;99.90;;;;;;4915204;29;20026;-78
2022/01/23 13:01:41;;;;;;;25.98;8.75;;;12.70;99.90;;;;;;4918303;29;20421;-82
2022/01/23 13:04:08;;;;;;;17.77;8.73;;;12.70;99.90;;;;;;4917980;29;20055;-80
2022/01/23 13:06:58;;;;;;;21.48;9.40;;;12.60;99.90;;;;;;4915881;29;20032;-80
2022/01/23 13:30:34;;;;;;;10.70;5.93;;;12.00;99.90;;;;;;4935062;29;20059;-75
2022/01/23 13:33:10;;;;;;;15.95;6.03;;;11.90;99.90;;;;;;4934976;29;20060;-83
2022/01/23 13:35:41;;;;;;;17.83;7.55;;;11.90;99.90;;;;;;4935311;29;20130;-85
2022/01/23 13:38:13;;;;;;;16.17;7.20;;;11.90;99.90;;;;;;4933359;29;20023;-86
2022/01/23 13:40:42;;;;;;;22.35;8.20;;;11.90;99.90;;;;;;4919425;29;20485;-81
2022/01/23 13:59:40;;;;;;;18.17;6.53;;;11.90;99.90;;;;;;4916739;29;20035;-85
2022/01/23 14:02:17;;;;;;;17.50;6.50;;;11.90;99.90;;;;;;4899287;29;20057;-83
2022/01/23 14:04:48;;;;;;;27.20;7.47;;;11.80;99.90;;;;;;4901879;29;20030;-86
2022/01/23 14:07:27;;;;;;;22.23;6.72;;;11.80;99.90;;;;;;4919275;29;20036;-83
2022/01/23 14:09:59;;;;;;;22.48;9.20;;;11.90;99.90;;;;;;4918738;29;20024;-84
2022/01/23 14:12:26;;;;;;;22.90;8.75;;;11.80;99.90;;;;;;4919226;29;20036;-84
2022/01/23 14:15:00;;;;;;;21.02;8.38;;;11.70;99.90;;;;;;4918542;29;20031;-83
2022/01/23 14:17:28;;;;;;;14.15;7.43;;;11.70;99.90;;;;;;4919604;29;20035;-88
2022/01/23 14:20:06;;;;;;;15.52;8.02;;;11.70;99.90;;;;;;4919769;29;20562;-85
2022/01/23 14:22:34;;;;;;;18.35;8.05;;;11.60;99.90;;;;;;4919813;29;20497;-87
2022/01/23 14:25:26;;;;;;;24.70;8.65;;;11.70;99.90;;;;;;4896038;29;20029;-83
2022/01/23 14:28:06;;;;;;;15.23;7.22;;;11.60;99.90;;;;;;4900705;29;20025;-88
2022/01/23 14:30:32;;;;;;;21.35;8.65;;;11.60;99.90;;;;;;4901185;29;20032;-87
2022/01/23 14:33:09;;;;;;;17.42;7.50;;;11.60;99.90;;;;;;4907317;29;20040;-82
2022/01/23 14:35:35;;;;;;;16.25;6.95;;;11.60;99.90;;;;;;4923496;29;20075;-87
2022/01/23 14:38:11;;;;;;;14.90;6.00;;;11.60;99.90;;;;;;4932274;29;20115;-86
2022/01/23 14:40:39;;;;;;;13.10;6.38;;;11.50;99.90;;;;;;4921236;29;20040;-86
2022/01/23 14:43:09;;;;;;;16.58;6.22;;;11.40;99.90;;;;;;4916511;29;20413;-80
2022/01/23 14:45:46;;;;;;;17.38;6.65;;;11.40;99.90;;;;;;4919697;29;20099;-87
2022/01/23 14:48:13;;;;;;;15.95;6.55;;;11.30;99.90;;;;;;4919307;29;20362;-80
2022/01/23 14:50:42;;;;;;;15.40;6.72;;;11.20;99.90;;;;;;4919112;29;20114;-85
2022/01/23 14:53:20;;;;;;;21.00;7.57;;;11.20;99.90;;;;;;4919543;29;20024;-86
2022/01/23 14:55:55;;;;;;;21.10;8.30;;;11.20;99.90;;;;;;4924426;29;20036;-88
2022/01/23 14:58:22;;;;;;;20.60;8.43;;;11.10;99.90;;;;;;4926144;29;20032;-78
2022/01/23 15:00:54;;;;;;;14.57;7.95;;;11.10;99.90;;;;;;4938497;29;20372;-85
2022/01/23 15:03:21;;;;;;;14.82;9.20;;;11.10;99.90;;;;;;4937328;29;20051;-90
2022/01/23 15:05:48;;;;;;;15.35;8.85;;;11.00;99.90;;;;;;4938092;29;20106;-87
2022/01/23 15:08:20;;;;;;;18.25;10.07;;;11.00;99.90;;;;;;4937951;29;20020;-78
2022/01/23 15:10:48;;;;;;;27.67;11.27;;;10.90;99.90;;;;;;4920914;29;20028;-84
2022/01/23 15:13:14;;;;;;;33.33;12.32;;;10.90;99.90;;;;;;4937955;29;20094;-83
2022/01/23 15:15:41;;;;;;;27.63;12.27;;;10.80;99.90;;;;;;4937225;29;20044;-90
2022/01/23 15:18:09;;;;;;;22.05;11.77;;;10.80;99.90;;;;;;4937152;29;20020;-83
2022/01/23 15:20:35;;;;;;;32.42;13.25;;;10.70;99.90;;;;;;4919905;29;20027;-82
2022/01/23 15:23:03;;;;;;;29.02;14.63;;;10.60;99.90;;;;;;4917548;29;20024;-79
2022/01/23 15:25:29;;;;;;;35.90;14.07;;;10.60;99.90;;;;;;4900366;29;20036;-75
2022/01/23 15:27:55;;;;;;;31.45;13.35;;;10.50;99.90;;;;;;4914537;29;20020;-82
2022/01/23 15:30:23;;;;;;;22.40;12.20;;;10.50;99.90;;;;;;4915884;29;20024;-81
2022/01/23 15:32:51;;;;;;;29.83;15.77;;;10.50;99.90;;;;;;4906267;29;20031;-84
2022/01/23 15:35:18;;;;;;;43.05;16.90;;;10.40;99.90;;;;;;4914464;29;20085;-76
2022/01/23 15:37:44;;;;;;;110.47;44.45;;;10.30;99.90;;;;;;4915703;29;21140;-84
2022/01/23 15:40:12;;;;;;;41.75;18.77;;;10.30;99.90;;;;;;4896950;29;20531;-76
2022/01/23 15:42:38;;;;;;;52.15;22.40;;;10.20;99.90;;;;;;4916760;29;20455;-79
2022/01/23 15:45:05;;;;;;;31.15;13.93;;;10.20;99.90;;;;;;4916956;29;20020;-78
2022/01/23 15:47:31;;;;;;;22.73;11.38;;;10.20;99.90;;;;;;4897881;29;20481;-83
2022/01/23 15:49:57;;;;;;;29.05;10.85;;;10.10;99.90;;;;;;4916827;29;20481;-78
2022/01/23 15:52:23;;;;;;;26.20;12.35;;;10.10;99.90;;;;;;4916314;29;20020;-77
2022/01/23 15:54:49;;;;;;;26.73;14.27;;;10.10;99.90;;;;;;4915031;29;20036;-81
2022/01/23 15:57:15;;;;;;;27.77;14.75;;;10.00;99.90;;;;;;4908614;29;20029;-76
2022/01/23 15:59:41;;;;;;;41.42;19.50;;;10.00;99.90;;;;;;4915588;29;20413;-76
2022/01/23 16:02:08;;;;;;;30.92;16.67;;;10.00;99.90;;;;;;4918114;29;20034;-78
2022/01/23 16:04:37;;;;;;;30.05;16.20;;;9.90;99.90;;;;;;4917733;29;20034;-78
2022/01/23 16:07:12;;;;;;;34.22;18.70;;;9.90;99.90;;;;;;4917759;29;20366;-84
2022/01/23 16:09:38;;;;;;;33.60;17.75;;;9.80;99.90;;;;;;4911597;29;20076;-80
2022/01/23 16:12:04;;;;;;;37.50;18.00;;;9.80;99.90;;;;;;4917846;29;20032;-84
2022/01/23 16:14:30;;;;;;;31.20;16.75;;;9.70;99.90;;;;;;4916026;29;20587;-81
2022/01/23 16:16:56;;;;;;;38.30;17.95;;;9.70;99.90;;;;;;4915540;29;20127;-78
2022/01/23 16:19:22;;;;;;;28.33;17.35;;;9.60;99.90;;;;;;4915514;29;20038;-78
2022/01/23 16:21:51;;;;;;;37.95;18.60;;;9.50;99.90;;;;;;4917418;29;20393;-80
2022/01/23 16:24:18;;;;;;;39.85;19.25;;;9.50;99.90;;;;;;4915463;29;20020;-75
2022/01/23 16:26:43;;;;;;;33.33;17.95;;;9.50;99.90;;;;;;4915589;29;20056;-79